Time;durP1;ratioP1;P1;durP2;ratioP2;P2;SDS_P1;SDS_P2;PMS_P1;PMS_P2;Temp;Humidity;BMP_temperature;BMP_pressure;BME280_temperature;BME280_humidity;BME280_pressure;Samples;Min_cycle;Max_cycle;Signal;HPM_P1;HPM_P2
2022/02/26 00:02:16;;;;;;;;;27.00;24.60;;;;;8.07;42.45;99461.53;6265131;27;96488;-66
2022/02/26 00:05:19;;;;;;;;;24.80;22.20;;;;;8.05;42.77;99470.81;6263662;27;96915;-65
2022/02/26 00:08:23;;;;;;;;;27.00;24.40;;;;;8.09;42.45;99466.72;6264078;27;97588;-66
2022/02/26 00:11:26;;;;;;;;;27.00;24.00;;;;;8.12;42.34;99469.84;6229474;27;97320;-64
2022/02/26 00:14:29;;;;;;;;;25.60;21.60;;;;;8.13;42.31;99468.81;6264175;27;97520;-64
2022/02/26 00:17:35;;;;;;;;;25.20;23.00;;;;;8.08;42.30;99471.25;6245518;27;97429;-65
2022/02/26 00:20:39;;;;;;;;;21.00;20.00;;;;;7.99;42.59;99469.72;6260135;27;97392;-65
2022/02/26 00:23:43;;;;;;;;;27.60;22.60;;;;;7.94;42.65;99469.47;6262599;27;96484;-64
2022/02/26 00:26:46;;;;;;;;;24.60;22.60;;;;;7.92;42.53;99478.72;6263511;27;98024;-65
2022/02/26 00:29:50;;;;;;;;;24.60;23.00;;;;;7.86;42.59;99471.44;6244433;27;98227;-68
2022/02/26 00:32:54;;;;;;;;;26.33;23.67;;;;;7.82;42.74;99477.16;6245763;27;97791;-68
2022/02/26 00:35:59;;;;;;;;;23.75;22.00;;;;;7.77;42.92;99471.53;6264102;27;97580;-67
2022/02/26 00:39:02;;;;;;;;;25.60;22.60;;;;;7.69;43.02;99479.72;6243658;27;99572;-66
2022/02/26 00:42:05;;;;;;;;;24.80;20.80;;;;;7.72;42.93;99478.53;6242582;27;98416;-67
2022/02/26 00:45:10;;;;;;;;;26.00;23.00;;;;;7.63;43.00;99474.25;6260902;27;97604;-64
2022/02/26 00:48:14;;;;;;;;;22.60;21.00;;;;;7.62;43.12;99473.44;6261357;27;97103;-67
2022/02/26 00:51:16;;;;;;;;;23.60;21.60;;;;;7.69;42.77;99482.41;6243053;27;97000;-65
2022/02/26 00:54:20;;;;;;;;;23.00;22.00;;;;;7.67;42.98;99487.09;6262679;27;97360;-65
2022/02/26 00:57:25;;;;;;;;;24.25;22.00;;;;;7.77;42.72;99478.78;6263498;27;97473;-66
2022/02/26 01:00:29;;;;;;;;;22.00;20.00;;;;;7.81;42.51;99478.22;6245055;27;97999;-67
2022/02/26 01:03:33;;;;;;;;;22.00;19.60;;;;;7.81;42.42;99475.53;6261991;27;96822;-65
2022/02/26 01:06:37;;;;;;;;;20.00;18.00;;;;;7.80;42.46;99478.41;6263363;27;96605;-67
2022/02/26 01:09:41;;;;;;;;;23.00;20.00;;;;;7.71;42.74;99484.91;6244721;27;97506;-65
2022/02/26 01:12:44;;;;;;;;;23.60;21.00;;;;;7.69;42.55;99482.41;6263561;27;97367;-66
2022/02/26 01:15:48;;;;;;;;;23.00;20.60;;;;;7.71;42.44;99483.06;6245182;27;97011;-66
2022/02/26 01:18:54;;;;;;;;;21.00;19.00;;;;;7.73;42.41;99496.25;6262837;27;97042;-66
2022/02/26 01:21:58;;;;;;;;;23.00;21.00;;;;;7.72;42.36;99489.25;6245364;27;98482;-66
2022/02/26 01:25:01;;;;;;;;;26.40;21.00;;;;;7.69;42.48;99490.44;6243677;27;98528;-65
2022/02/26 01:28:05;;;;;;;;;23.00;21.60;;;;;7.71;42.31;99492.94;6263566;27;97438;-65
2022/02/26 01:31:08;;;;;;;;;24.40;21.80;;;;;7.70;42.44;99494.81;6227447;27;98396;-65
2022/02/26 01:34:13;;;;;;;;;24.00;22.00;;;;;7.73;42.27;99488.22;6263258;27;96486;-66
2022/02/26 01:37:16;;;;;;;;;25.40;22.60;;;;;7.69;42.29;99490.44;6244460;27;96723;-65
2022/02/26 01:40:19;;;;;;;;;22.75;22.00;;;;;7.75;42.04;99492.38;6262553;27;97426;-67
2022/02/26 01:43:23;;;;;;;;;23.60;21.00;;;;;7.77;41.97;99497.56;6262852;27;96447;-66
2022/02/26 01:46:27;;;;;;;;;21.60;19.60;;;;;7.74;41.87;99496.09;6263224;27;96946;-66
2022/02/26 01:49:31;;;;;;;;;23.20;20.00;;;;;7.70;42.13;99496.66;6262532;27;97355;-64
2022/02/26 01:52:35;;;;;;;;;25.00;21.00;;;;;7.44;41.93;99467.63;6262904;27;97013;-67
2022/02/26 01:55:41;;;;;;;;;25.75;23.00;;;;;7.63;42.16;99499.25;6263152;27;96770;-66
2022/02/26 01:58:45;;;;;;;;;23.40;20.00;;;;;7.61;42.07;99493.25;6261366;27;97401;-66
2022/02/26 02:01:48;;;;;;;;;24.00;22.00;;;;;7.58;42.19;99495.47;6260609;27;96912;-65
2022/02/26 02:04:53;;;;;;;;;25.00;24.00;;;;;7.52;42.12;99494.38;6261105;27;97323;-66
2022/02/26 02:07:58;;;;;;;;;29.00;24.20;;;;;7.55;42.09;99496.69;6261048;27;97535;-64
2022/02/26 02:11:07;;;;;;;;;28.33;24.00;;;;;7.54;42.06;99504.91;6262766;27;97326;-67
2022/02/26 02:14:10;;;;;;;;;28.40;25.60;;;;;7.48;42.47;99495.75;6244089;27;96606;-67
2022/02/26 02:17:15;;;;;;;;;28.33;24.33;;;;;7.48;42.30;99506.47;6243730;27;97504;-64
2022/02/26 02:20:20;;;;;;;;;30.00;28.00;;;;;7.40;42.50;99502.06;6262350;27;97394;-64
2022/02/26 02:23:24;;;;;;;;;32.50;28.75;;;;;7.30;42.79;99498.00;6242073;27;97462;-65
2022/02/26 02:26:29;;;;;;;;;28.75;27.00;;;;;7.06;42.60;99480.34;6257798;27;98561;-66
2022/02/26 02:29:33;;;;;;;;;29.00;27.00;;;;;7.19;42.92;99506.50;6258960;27;97408;-67
2022/02/26 02:32:36;;;;;;;;;28.25;25.75;;;;;7.17;42.95;99508.53;6261016;27;96480;-64
2022/02/26 02:35:43;;;;;;;;;25.60;23.60;;;;;7.17;42.88;99517.44;6260562;27;96403;-67
2022/02/26 02:38:48;;;;;;;;;26.00;24.00;;;;;7.12;42.93;99522.50;6245872;27;96475;-65
2022/02/26 02:41:51;;;;;;;;;24.00;20.60;;;;;7.13;42.90;99517.97;6259098;27;96465;-65
2022/02/26 02:44:55;;;;;;;;;25.33;22.67;;;;;7.18;42.97;99515.59;6261925;27;96997;-65
2022/02/26 02:48:00;;;;;;;;;26.00;24.00;;;;;7.17;42.91;99519.28;6243615;27;97474;-66
2022/02/26 02:51:03;;;;;;;;;30.00;27.00;;;;;7.13;43.21;99515.31;6262054;27;97042;-65
2022/02/26 02:54:08;;;;;;;;;28.00;22.80;;;;;7.14;43.08;99514.25;6262505;27;97416;-66
2022/02/26 02:57:11;;;;;;;;;27.00;25.00;;;;;7.08;43.13;99517.69;6261659;27;96848;-64
2022/02/26 03:00:16;;;;;;;;;28.60;26.00;;;;;7.04;42.97;99522.56;6258029;27;97539;-67
2022/02/26 03:03:20;;;;;;;;;27.00;24.00;;;;;6.94;43.26;99513.97;6261816;27;96296;-64
2022/02/26 03:06:25;;;;;;;;;28.40;25.00;;;;;6.99;43.39;99530.34;6242985;27;96774;-67
2022/02/26 03:09:29;;;;;;;;;32.00;27.00;;;;;6.90;43.59;99528.75;6243671;27;98056;-66
2022/02/26 03:12:34;;;;;;;;;32.00;28.00;;;;;6.83;43.61;99541.22;6261230;27;96927;-64
2022/02/26 03:15:37;;;;;;;;;32.00;29.00;;;;;6.78;43.73;99540.94;6261450;27;97475;-66
2022/02/26 03:18:40;;;;;;;;;26.00;25.00;;;;;6.76;43.54;99538.44;6261405;27;96546;-64
2022/02/26 03:21:43;;;;;;;;;32.00;27.40;;;;;6.73;43.61;99538.81;6242805;27;96994;-66
2022/02/26 03:24:49;;;;;;;;;32.00;29.40;;;;;6.70;43.62;99549.88;6242715;27;97467;-65
2022/02/26 03:27:52;;;;;;;;;28.20;25.20;;;;;6.70;43.83;99554.41;6242219;27;96689;-67
2022/02/26 03:30:55;;;;;;;;;30.00;27.00;;;;;6.70;43.65;99557.06;6260775;27;97014;-67
2022/02/26 03:33:59;;;;;;;;;33.40;27.60;;;;;6.70;43.58;99557.06;6261146;27;97421;-66
2022/02/26 03:37:03;;;;;;;;;31.00;25.33;;;;;6.72;43.62;99563.94;6242883;27;97505;-65
2022/02/26 03:40:09;;;;;;;;;27.00;25.00;;;;;6.73;43.63;99564.78;6243280;27;97743;-67
2022/02/26 03:43:13;;;;;;;;;27.50;25.50;;;;;6.74;43.46;99566.44;6246734;27;96752;-65
2022/02/26 03:46:16;;;;;;;;;29.60;24.60;;;;;6.74;43.39;99567.28;6265166;27;97470;-64
2022/02/26 03:49:19;;;;;;;;;29.00;24.20;;;;;6.74;43.46;99572.66;6265194;27;96352;-65
2022/02/26 03:52:23;;;;;;;;;26.40;22.20;;;;;6.72;43.34;99577.34;6246215;27;97176;-66
2022/02/26 03:55:28;;;;;;;;;26.00;22.00;;;;;6.76;43.19;99578.63;6263879;27;96969;-64
2022/02/26 03:58:31;;;;;;;;;22.00;20.00;;;;;6.76;43.20;99577.81;6263797;27;96748;-67
2022/02/26 04:01:35;;;;;;;;;19.00;17.60;;;;;6.78;42.82;99581.97;6262333;27;96921;-66
2022/02/26 04:04:39;;;;;;;;;21.25;18.00;;;;;6.82;42.71;99585.13;6262805;27;96776;-65
2022/02/26 04:07:42;;;;;;;;;21.40;19.00;;;;;6.84;42.49;99589.28;6244824;27;97997;-64
2022/02/26 04:10:47;;;;;;;;;17.50;17.00;;;;;6.89;42.51;99594.13;6263789;27;97360;-64
2022/02/26 04:13:50;;;;;;;;;20.00;18.00;;;;;6.90;42.50;99595.75;6245260;27;97785;-65
2022/02/26 04:16:53;;;;;;;;;19.00;16.00;;;;;6.87;42.42;99596.97;6263943;27;98172;-65
2022/02/26 04:19:58;;;;;;;;;17.00;16.00;;;;;6.91;42.45;99602.78;6245917;27;99003;-63
2022/02/26 04:23:02;;;;;;;;;17.40;16.40;;;;;6.91;42.33;99606.31;6264869;27;96403;-65
2022/02/26 04:26:06;;;;;;;;;18.00;16.00;;;;;6.90;42.13;99611.84;6264036;27;96379;-65
2022/02/26 04:29:10;;;;;;;;;17.00;16.00;;;;;6.93;42.06;99615.03;6262663;27;96469;-66
2022/02/26 04:32:13;;;;;;;;;15.00;14.00;;;;;6.93;42.05;99616.88;6264940;27;96392;-64
2022/02/26 04:35:16;;;;;;;;;18.40;15.40;;;;;6.93;41.95;99620.38;6264591;27;96435;-66
2022/02/26 04:38:20;;;;;;;;;15.00;13.00;;;;;6.74;42.19;99599.44;6263484;27;98000;-65
2022/02/26 04:41:25;;;;;;;;;15.60;14.00;;;;;6.94;41.54;99619.34;6264410;27;97579;-65
2022/02/26 04:44:29;;;;;;;;;14.20;12.80;;;;;6.96;41.45;99621.84;6264691;27;97399;-64
2022/02/26 04:47:33;;;;;;;;;16.00;15.00;;;;;7.02;41.39;99631.03;6245507;27;98345;-65
2022/02/26 04:50:36;;;;;;;;;13.40;12.40;;;;;7.04;41.12;99635.19;6264066;27;97508;-64
2022/02/26 04:53:41;;;;;;;;;14.00;12.40;;;;;7.03;41.02;99636.22;6245944;27;98527;-65
2022/02/26 04:56:45;;;;;;;;;13.60;12.60;;;;;7.04;40.93;99647.78;6263892;27;96908;-65
2022/02/26 04:59:48;;;;;;;;;13.00;12.00;;;;;7.04;40.75;99645.91;6245677;27;97507;-65
2022/02/26 05:02:52;;;;;;;;;13.00;13.00;;;;;7.03;40.68;99649.63;6265710;27;97354;-66
2022/02/26 05:05:55;;;;;;;;;13.00;11.60;;;;;7.03;40.80;99648.78;6264323;27;97036;-64
2022/02/26 05:08:58;;;;;;;;;16.00;13.00;;;;;6.97;40.89;99658.38;6255686;27;97449;-64
2022/02/26 05:12:05;;;;;;;;;11.40;10.60;;;;;7.01;40.81;99666.88;6247691;27;97354;-64
2022/02/26 05:15:09;;;;;;;;;16.00;14.00;;;;;7.00;40.89;99671.41;6263353;27;98059;-64
2022/02/26 05:18:12;;;;;;;;;15.25;13.00;;;;;6.99;40.90;99683.13;6245247;27;97540;-64
2022/02/26 05:21:16;;;;;;;;;16.00;14.00;;;;;6.98;41.04;99681.50;6245160;27;97017;-66
2022/02/26 05:24:21;;;;;;;;;15.20;13.60;;;;;6.95;41.04;99689.88;6255519;27;97218;-66
2022/02/26 05:27:26;;;;;;;;;19.00;16.00;;;;;6.92;41.20;99691.09;6243790;27;96651;-65
2022/02/26 05:30:30;;;;;;;;;20.80;18.80;;;;;6.70;41.55;99661.59;6256326;27;97284;-64
2022/02/26 05:33:33;;;;;;;;;18.00;18.00;;;;;6.84;41.45;99693.00;6260740;27;97218;-66
2022/02/26 05:36:37;;;;;;;;;17.00;17.00;;;;;6.83;41.51;99702.88;6252468;27;98461;-67
2022/02/26 05:39:40;;;;;;;;;21.00;19.00;;;;;6.76;41.74;99709.94;6227140;27;99452;-64
2022/02/26 05:42:48;;;;;;;;;17.20;16.20;;;;;6.72;41.94;99716.69;6261629;27;98070;-64
2022/02/26 05:45:51;;;;;;;;;19.00;17.00;;;;;6.66;41.84;99709.34;6245176;27;96806;-64
2022/02/26 05:48:55;;;;;;;;;19.40;18.40;;;;;6.77;41.79;99718.81;6243221;27;99452;-65
2022/02/26 05:51:58;;;;;;;;;16.00;15.00;;;;;6.85;41.70;99729.50;6284196;27;96337;-66
2022/02/26 05:55:01;;;;;;;;;16.25;14.25;;;;;6.97;41.47;99728.91;6264505;27;97517;-65
2022/02/26 05:58:06;;;;;;;;;14.60;14.00;;;;;7.16;40.98;99729.44;6245231;27;99594;-66
2022/02/26 06:01:10;;;;;;;;;15.00;12.80;;;;;7.23;40.63;99733.91;6260631;27;96566;-66
2022/02/26 06:04:13;;;;;;;;;13.50;12.25;;;;;7.31;40.22;99736.53;6259766;27;97089;-64
2022/02/26 06:07:16;;;;;;;;;12.00;12.00;;;;;7.47;40.21;99740.09;6261146;27;96562;-66
2022/02/26 06:10:20;;;;;;;;;15.00;13.00;;;;;7.55;40.00;99742.69;6262318;27;97471;-65
2022/02/26 06:13:25;;;;;;;;;17.50;15.25;;;;;7.59;39.97;99742.16;6243843;27;99367;-66
2022/02/26 06:16:30;;;;;;;;;19.60;17.60;;;;;7.64;39.74;99753.19;6244034;27;97325;-67
2022/02/26 06:19:33;;;;;;;;;16.00;14.00;;;;;7.72;39.59;99754.97;6262732;27;96936;-66
2022/02/26 06:22:37;;;;;;;;;16.00;14.00;;;;;7.76;39.46;99764.31;6244258;27;96680;-65
2022/02/26 06:25:40;;;;;;;;;16.60;15.00;;;;;7.79;39.50;99770.16;6261965;27;97108;-66
2022/02/26 06:28:45;;;;;;;;;19.00;18.00;;;;;7.84;39.39;99765.06;6261368;27;96388;-66
2022/02/26 06:31:48;;;;;;;;;16.60;15.20;;;;;7.92;39.43;99769.50;6248933;27;97207;-68
2022/02/26 06:34:51;;;;;;;;;21.40;19.40;;;;;7.94;39.51;99780.91;6260749;27;96383;-65
2022/02/26 06:37:54;;;;;;;;;22.00;20.00;;;;;7.96;39.40;99781.59;6241063;27;97785;-65
2022/02/26 06:40:58;;;;;;;;;22.25;20.00;;;;;8.64;38.46;99778.66;6257035;27;97549;-66
2022/02/26 06:44:06;;;;;;;;;20.40;18.40;;;;;9.51;37.19;99778.56;6256892;27;97841;-67
2022/02/26 06:47:09;;;;;;;;;18.20;17.20;;;;;10.49;35.54;99777.63;6245399;27;96497;-66
2022/02/26 06:50:12;;;;;;;;;19.20;18.80;;;;;11.63;33.63;99782.16;6259439;27;100047;-67
2022/02/26 06:53:16;;;;;;;;;20.00;20.00;;;;;13.46;30.94;99785.41;6261812;27;96583;-65
2022/02/26 06:56:19;;;;;;;;;32.60;31.00;;;;;15.56;28.10;99785.06;6261878;27;97040;-63
2022/02/26 06:59:24;;;;;;;;;26.00;22.40;;;;;17.56;25.59;99794.44;6242059;27;96858;-64
2022/02/26 07:02:28;;;;;;;;;24.60;20.00;;;;;19.19;23.24;99782.19;6243841;27;96717;-65
2022/02/26 07:05:31;;;;;;;;;23.00;21.00;;;;;20.79;21.75;99809.59;6245754;27;97428;-66
2022/02/26 07:08:34;;;;;;;;;21.00;18.00;;;;;22.02;20.14;99805.06;6253427;27;97393;-67
2022/02/26 07:11:37;;;;;;;;;22.00;20.75;;;;;23.07;19.11;99811.50;6250819;27;96731;-65
2022/02/26 07:14:42;;;;;;;;;18.40;17.00;;;;;23.96;17.99;99815.97;6257292;27;97369;-67
2022/02/26 07:17:46;;;;;;;;;24.40;20.40;;;;;24.87;17.36;99823.47;6249237;27;97481;-65
2022/02/26 07:20:49;;;;;;;;;17.00;16.20;;;;;25.68;16.49;99824.38;6258815;27;97477;-66
2022/02/26 07:23:53;;;;;;;;;18.25;17.00;;;;;26.29;15.45;99832.56;6262159;27;98003;-66
2022/02/26 07:26:56;;;;;;;;;16.67;15.00;;;;;26.77;15.05;99830.31;6262303;27;98669;-66
2022/02/26 07:30:01;;;;;;;;;16.00;15.00;;;;;27.23;14.67;99827.47;6263959;27;97492;-65
2022/02/26 07:33:04;;;;;;;;;18.50;16.00;;;;;27.35;14.44;99835.28;6254480;27;98374;-67
2022/02/26 07:36:09;;;;;;;;;16.40;15.00;;;;;27.79;14.12;99842.91;6245569;27;97475;-68
2022/02/26 07:39:12;;;;;;;;;19.75;17.50;;;;;28.32;13.95;99845.81;6262520;27;97357;-67
2022/02/26 07:42:15;;;;;;;;;22.00;20.00;;;;;28.72;13.50;99850.34;6263929;27;97438;-66
2022/02/26 07:45:22;;;;;;;;;25.40;23.40;;;;;29.01;13.48;99860.09;6226912;27;97244;-65
2022/02/26 07:48:26;;;;;;;;;24.25;22.25;;;;;29.14;13.01;99857.22;6262578;27;97350;-65
2022/02/26 07:51:29;;;;;;;;;25.50;23.00;;;;;29.35;13.81;99856.66;6264519;27;97039;-66
2022/02/26 07:54:32;;;;;;;;;29.00;26.00;;;;;29.52;12.85;99856.69;6244563;27;97861;-66
2022/02/26 07:57:36;;;;;;;;;27.50;26.00;;;;;29.80;12.97;99871.97;6245538;27;97584;-66
2022/02/26 08:00:40;;;;;;;;;30.00;28.20;;;;;29.87;12.84;99874.25;6262861;27;96501;-65
2022/02/26 08:03:44;;;;;;;;;32.00;30.00;;;;;29.75;12.81;99880.47;6235579;27;97313;-68
2022/02/26 08:06:47;;;;;;;;;29.00;26.00;;;;;27.66;15.01;99882.56;6249387;27;98066;-66
2022/02/26 08:09:50;;;;;;;;;26.25;25.25;;;;;25.73;16.56;99890.59;6264229;27;96722;-65
2022/02/26 08:12:54;;;;;;;;;29.40;25.00;;;;;23.95;17.81;99877.66;6256178;27;98065;-65
2022/02/26 08:15:59;;;;;;;;;24.40;23.80;;;;;22.72;18.84;99877.59;6256350;27;96599;-67
2022/02/26 08:19:03;;;;;;;;;26.00;23.00;;;;;21.42;20.24;99874.34;6277760;27;96678;-65
2022/02/26 08:22:06;;;;;;;;;22.25;21.00;;;;;20.92;20.54;99878.47;6243932;27;96598;-65
2022/02/26 08:25:11;;;;;;;;;24.00;20.80;;;;;20.24;21.07;99882.03;6263595;27;97410;-67
2022/02/26 08:28:14;;;;;;;;;24.60;22.60;;;;;21.36;19.57;99869.94;6260972;27;97207;-66
2022/02/26 08:31:22;;;;;;;;;24.20;22.80;;;;;21.52;19.46;99856.00;6244760;27;97930;-66
2022/02/26 08:34:26;;;;;;;;;25.60;21.60;;;;;22.92;18.24;99874.78;6263548;27;97401;-65
2022/02/26 08:37:29;;;;;;;;;23.00;22.00;;;;;24.32;16.79;99874.41;6245941;27;96563;-67
2022/02/26 08:40:32;;;;;;;;;24.50;22.00;;;;;25.50;16.11;99883.13;6264423;27;97479;-67
2022/02/26 08:43:37;;;;;;;;;22.33;21.33;;;;;26.34;15.84;99887.75;6262887;27;96996;-65
2022/02/26 08:46:42;;;;;;;;;22.00;21.40;;;;;27.26;14.24;99895.28;6261337;27;96820;-68
2022/02/26 08:49:45;;;;;;;;;22.00;21.00;;;;;27.74;14.91;99890.94;6256397;27;99479;-65
2022/02/26 08:52:48;;;;;;;;;25.20;22.00;;;;;26.39;15.50;99895.97;6261867;27;97429;-68
2022/02/26 08:55:52;;;;;;;;;25.60;22.00;;;;;26.28;15.55;99900.88;6263494;27;97332;-66
2022/02/26 08:58:55;;;;;;;;;24.40;23.00;;;;;24.99;16.79;99901.09;6263347;27;96401;-68
2022/02/26 09:02:00;;;;;;;;;24.80;23.40;;;;;23.57;17.92;99903.22;6261942;27;97181;-66
2022/02/26 09:05:05;;;;;;;;;24.20;23.20;;;;;22.15;18.87;99908.06;6243458;27;97771;-67
2022/02/26 09:08:09;;;;;;;;;26.00;24.00;;;;;21.03;19.62;99904.03;6263438;27;96607;-66
2022/02/26 09:11:12;;;;;;;;;27.00;25.00;;;;;20.14;20.40;99917.53;6245245;27;97278;-67
2022/02/26 09:14:15;;;;;;;;;26.20;25.20;;;;;19.42;21.88;99926.84;6262660;27;96495;-65
2022/02/26 09:17:20;;;;;;;;;27.20;26.00;;;;;18.80;22.52;99929.00;6244225;27;97268;-65
2022/02/26 09:20:23;;;;;;;;;28.00;25.00;;;;;18.21;23.23;99933.16;6227286;27;97857;-66
2022/02/26 09:23:28;;;;;;;;;30.80;27.80;;;;;17.74;23.98;99932.53;6262727;27;98194;-66
2022/02/26 09:26:32;;;;;;;;;30.00;26.00;;;;;17.39;24.51;99945.44;6262031;27;98036;-65
2022/02/26 09:29:35;;;;;;;;;29.20;26.80;;;;;17.21;24.98;99957.28;6262020;27;98254;-66
2022/02/26 09:32:40;;;;;;;;;32.00;28.80;;;;;17.10;26.18;99944.53;6243582;27;96949;-66
2022/02/26 09:35:44;;;;;;;;;29.60;26.60;;;;;16.84;25.80;99945.84;6255322;27;96886;-66
2022/02/26 09:38:48;;;;;;;;;28.00;27.00;;;;;16.72;26.15;99958.59;6249350;27;99531;-65
2022/02/26 09:41:53;;;;;;;;;29.60;28.00;;;;;17.75;24.85;99961.47;6251651;27;97503;-65
2022/02/26 09:44:57;;;;;;;;;29.80;27.80;;;;;17.89;24.96;99964.72;6219776;27;97798;-65
2022/02/26 09:48:02;;;;;;;;;33.25;29.25;;;;;18.03;25.08;99964.19;6243518;27;97823;-66
2022/02/26 09:51:06;;;;;;;;;29.80;27.20;;;;;17.97;25.09;99967.09;6261030;27;96544;-65
2022/02/26 09:54:10;;;;;;;;;30.75;28.25;;;;;17.75;25.34;99973.22;6261458;27;97280;-65
2022/02/26 09:57:14;;;;;;;;;33.40;30.00;;;;;17.45;26.19;99958.06;6243954;27;98042;-66
2022/02/26 10:00:18;;;;;;;;;28.40;28.40;;;;;17.21;26.26;99977.19;6262196;27;96449;-65
2022/02/26 10:03:28;;;;;;;;;27.50;25.50;;;;;16.78;26.33;99963.09;6258990;27;97643;-65
2022/02/26 10:06:31;;;;;;;;;32.40;27.40;;;;;16.45;27.09;99982.69;6262900;27;97453;-65
2022/02/26 10:09:39;;;;;;;;;31.00;28.00;;;;;16.25;27.39;99985.72;6261670;27;96527;-66
2022/02/26 10:12:43;;;;;;;;;27.60;25.00;;;;;15.91;27.99;99984.50;6264044;27;96666;-65
2022/02/26 10:15:46;;;;;;;;;31.60;27.40;;;;;15.67;28.61;99990.91;6261653;27;96929;-67
2022/02/26 10:18:54;;;;;;;;;28.00;26.00;;;;;15.47;28.84;99991.09;6241865;27;97352;-67
2022/02/26 10:22:00;;;;;;;;;30.80;27.80;;;;;15.23;29.70;99996.59;6228083;27;97393;-66
2022/02/26 10:25:08;;;;;;;;;34.75;29.75;;;;;15.02;30.04;99995.94;6261884;27;97000;-67
2022/02/26 10:28:13;;;;;;;;;31.00;27.40;;;;;14.90;30.38;99999.63;6260743;27;96673;-66
2022/02/26 10:31:16;;;;;;;;;32.60;29.20;;;;;14.69;30.47;99998.13;6261987;27;96816;-64
2022/02/26 10:34:30;;;;;;;;;32.67;29.67;;;;;14.48;30.70;100007.47;6262246;27;97469;-65
2022/02/26 10:37:34;;;;;;;;;32.40;28.40;;;;;14.44;31.37;100005.41;6225706;27;96695;-66
2022/02/26 10:40:46;;;;;;;;;29.00;27.00;;;;;14.44;31.34;100006.25;6260650;27;97061;-64
2022/02/26 10:43:52;;;;;;;;;30.00;27.00;;;;;14.63;31.41;100002.56;6260387;27;97577;-65
2022/02/26 10:47:06;;;;;;;;;29.40;25.00;;;;;14.69;31.08;100001.69;6259291;27;97467;-66
2022/02/26 10:50:18;;;;;;;;;24.50;22.00;;;;;14.95;30.75;100006.06;6262364;27;97496;-66
2022/02/26 10:53:22;;;;;;;;;24.00;20.00;;;;;15.24;30.25;100015.41;6245913;27;98104;-65
2022/02/26 10:56:31;;;;;;;;;24.20;21.00;;;;;15.37;29.92;99998.09;6264123;27;97535;-66
2022/02/26 10:59:36;;;;;;;;;24.00;22.00;;;;;15.71;29.75;100002.13;6244243;27;99482;-66
2022/02/26 11:02:40;;;;;;;;;27.20;22.20;;;;;16.00;29.37;99999.44;6265261;27;96712;-65
2022/02/26 11:05:45;;;;;;;;;22.50;19.50;;;;;15.96;29.26;100014.56;6266304;27;97493;-67
2022/02/26 11:08:50;;;;;;;;;24.60;21.60;;;;;15.87;29.50;100015.94;6246971;27;99775;-66
2022/02/26 11:11:57;;;;;;;;;22.00;21.00;;;;;15.62;29.69;100011.66;6247599;27;98227;-66
2022/02/26 11:15:03;;;;;;;;;23.60;22.60;;;;;15.51;29.81;100016.78;6246786;27;97196;-65
2022/02/26 11:18:07;;;;;;;;;24.20;21.20;;;;;15.34;30.25;100007.56;6265807;27;97500;-64
2022/02/26 11:21:14;;;;;;;;;23.40;20.00;;;;;15.23;30.37;100013.72;6265975;27;96661;-64
2022/02/26 11:24:21;;;;;;;;;23.25;21.00;;;;;15.04;30.81;100003.88;6246670;27;97828;-66
2022/02/26 11:27:26;;;;;;;;;25.40;23.00;;;;;15.26;31.21;100002.41;6247177;27;97293;-63
2022/02/26 11:30:35;;;;;;;;;20.00;19.00;;;;;15.41;30.55;99999.31;6265403;27;97541;-66
2022/02/26 11:33:39;;;;;;;;;25.20;22.80;;;;;15.76;30.29;100002.28;6265275;27;97319;-65
2022/02/26 11:36:55;;;;;;;;;23.00;20.00;;;;;16.32;30.06;99994.59;6246696;27;96740;-65
2022/02/26 11:40:13;;;;;;;;;19.20;18.00;;;;;16.51;29.12;100000.81;6265717;27;97874;-67
2022/02/26 11:43:37;;;;;;;;;16.00;14.75;;;;;16.53;28.94;100003.28;6247020;27;96834;-67
2022/02/26 11:46:42;;;;;;;;;21.40;17.80;;;;;16.44;29.24;100005.50;6265667;27;97107;-67
2022/02/26 11:50:00;;;;;;;;;22.75;19.50;;;;;16.46;29.08;99987.06;6261292;27;96707;-66
2022/02/26 11:53:10;;;;;;;;;18.00;17.00;;;;;16.80;29.51;99999.13;6269966;27;98018;-66
2022/02/26 11:56:14;;;;;;;;;16.80;15.00;;;;;17.08;29.12;100004.69;6262363;27;97498;-65
2022/02/26 11:59:18;;;;;;;;;15.00;14.00;;;;;17.38;28.29;99996.38;6260210;27;97280;-67
2022/02/26 12:02:27;;;;;;;;;17.75;16.00;;;;;17.22;28.51;99991.66;6261851;27;96558;-68
2022/02/26 12:05:30;;;;;;;;;19.80;18.00;;;;;17.00;29.09;100006.97;6263045;27;97389;-64
2022/02/26 12:08:40;;;;;;;;;22.00;20.60;;;;;16.66;29.38;100003.13;6246797;27;97130;-66
2022/02/26 12:11:46;;;;;;;;;19.40;17.60;;;;;16.35;29.69;100007.75;6265365;27;96490;-66
2022/02/26 12:14:57;;;;;;;;;20.00;18.00;;;;;16.02;30.21;100018.28;6243967;27;99495;-64
2022/02/26 12:18:22;;;;;;;;;21.00;19.60;;;;;15.72;30.28;100010.06;6264821;27;96631;-66
2022/02/26 12:21:30;;;;;;;;;21.00;17.50;;;;;15.40;31.10;100011.22;6264874;27;96478;-65
2022/02/26 12:24:48;;;;;;;;;19.00;17.75;;;;;15.08;31.62;100014.06;6264322;27;96703;-66
2022/02/26 12:27:59;;;;;;;;;23.00;21.40;;;;;14.88;31.95;100010.72;6263706;27;98031;-65
2022/02/26 12:31:05;;;;;;;;;22.00;21.00;;;;;14.88;32.25;100005.28;6263087;27;96639;-67
2022/02/26 12:34:12;;;;;;;;;26.20;22.80;;;;;15.04;32.24;100004.72;6236813;27;96947;-65
2022/02/26 12:37:20;;;;;;;;;25.50;23.00;;;;;15.24;31.96;99992.81;6257531;27;96579;-65
2022/02/26 12:40:30;;;;;;;;;20.60;19.00;;;;;15.39;31.47;100002.28;6258812;27;98526;-67
2022/02/26 12:43:33;;;;;;;;;22.00;19.60;;;;;15.38;31.24;100003.31;6252158;27;96639;-66
2022/02/26 12:46:41;;;;;;;;;25.00;22.00;;;;;15.44;31.33;100005.13;6247311;27;97134;-66
2022/02/26 12:49:44;;;;;;;;;23.80;22.60;;;;;15.70;31.06;100001.31;6259657;27;97261;-66
2022/02/26 12:52:48;;;;;;;;;20.00;18.00;;;;;15.89;30.15;100002.94;6244641;27;97343;-68
2022/02/26 12:55:52;;;;;;;;;17.60;17.00;;;;;16.39;29.38;100005.38;6259560;27;97598;-65
2022/02/26 12:59:09;;;;;;;;;17.00;16.00;;;;;17.05;29.09;99999.72;6262805;27;96514;-66
2022/02/26 13:02:13;;;;;;;;;15.00;12.33;;;;;17.37;27.95;100000.19;6263653;27;97160;-67
2022/02/26 13:05:17;;;;;;;;;16.00;16.00;;;;;17.73;27.19;100004.53;6228995;27;96872;-67
2022/02/26 13:08:20;;;;;;;;;16.80;15.20;;;;;17.84;27.28;99997.41;6228134;27;98586;-67
2022/02/26 13:11:25;;;;;;;;;16.60;15.00;;;;;17.84;27.65;100002.84;6263419;27;97416;-65
2022/02/26 13:14:29;;;;;;;;;15.20;14.20;;;;;18.12;27.42;100003.69;6263626;27;97115;-66
2022/02/26 13:17:35;;;;;;;;;17.60;16.60;;;;;18.19;27.06;100000.81;6260024;27;96671;-66
2022/02/26 13:20:40;;;;;;;;;18.80;17.40;;;;;17.80;27.24;99997.03;6258712;27;97524;-66
2022/02/26 13:23:50;;;;;;;;;20.00;18.50;;;;;17.34;28.23;99997.94;6244244;27;96964;-65
2022/02/26 13:26:56;;;;;;;;;22.00;18.00;;;;;17.01;28.75;100000.41;6243865;27;97465;-66
2022/02/26 13:30:00;;;;;;;;;21.00;18.60;;;;;16.62;29.48;99996.47;6246172;27;98119;-65
2022/02/26 13:33:04;;;;;;;;;19.40;16.40;;;;;16.21;30.28;100000.00;6262296;27;97087;-67
2022/02/26 13:36:12;;;;;;;;;22.00;20.60;;;;;15.85;30.39;100000.91;6249651;27;96736;-67
2022/02/26 13:39:17;;;;;;;;;20.00;18.60;;;;;15.66;30.90;100007.41;6256751;27;98640;-67
2022/02/26 13:42:24;;;;;;;;;21.00;18.00;;;;;15.47;31.46;100006.56;6262554;27;97001;-65
2022/02/26 13:45:33;;;;;;;;;21.20;18.60;;;;;15.17;33.28;100012.72;6263003;27;96612;-67
2022/02/26 13:48:43;;;;;;;;;26.00;23.60;;;;;14.97;34.49;100011.25;6262463;27;97427;-67
2022/02/26 13:51:48;;;;;;;;;25.00;22.60;;;;;14.81;34.84;100012.63;6263047;27;98310;-65
2022/02/26 13:54:54;;;;;;;;;20.80;19.00;;;;;14.64;35.10;100016.97;6260725;27;96638;-66
2022/02/26 13:58:00;;;;;;;;;23.60;20.20;;;;;14.49;35.46;100016.44;6261497;27;96486;-66
2022/02/26 14:01:05;;;;;;;;;22.00;20.00;;;;;14.33;35.55;100012.34;6260362;27;96785;-65
2022/02/26 14:04:08;;;;;;;;;22.00;20.00;;;;;14.14;36.20;100018.72;6260729;27;97398;-63
2022/02/26 14:07:12;;;;;;;;;22.00;19.00;;;;;13.94;36.25;100016.13;6258678;27;97311;-67
2022/02/26 14:10:17;;;;;;;;;18.00;18.00;;;;;13.68;37.07;100025.19;6260581;27;97525;-65
2022/02/26 14:13:22;;;;;;;;;18.20;16.20;;;;;13.57;36.59;100030.44;6258255;27;96863;-67